sensor_id;sensor_type;location;lat;lon;timestamp;P1;durP1;ratioP1;P2;durP2;ratioP2
25155;SDS011;71253;51.496;7.606;2024-03-08T00:01:58;57.33;;;29.13;;
25155;SDS011;71253;51.496;7.606;2024-03-08T00:06:59;56.53;;;28.77;;
25155;SDS011;71253;51.496;7.606;2024-03-08T00:12:01;59.30;;;29.17;;
25155;SDS011;71253;51.496;7.606;2024-03-08T00:17:03;57.40;;;29.40;;
25155;SDS011;71253;51.496;7.606;2024-03-08T00:22:05;58.97;;;29.23;;
25155;SDS011;71253;51.496;7.606;2024-03-08T00:27:06;57.33;;;28.63;;
25155;SDS011;71253;51.496;7.606;2024-03-08T00:32:08;65.28;;;30.20;;
25155;SDS011;71253;51.496;7.606;2024-03-08T00:37:09;57.42;;;28.20;;
25155;SDS011;71253;51.496;7.606;2024-03-08T00:42:11;55.35;;;29.30;;
25155;SDS011;71253;51.496;7.606;2024-03-08T00:47:13;57.83;;;28.70;;
25155;SDS011;71253;51.496;7.606;2024-03-08T00:52:15;60.58;;;30.70;;
25155;SDS011;71253;51.496;7.606;2024-03-08T00:57:16;55.47;;;29.67;;
25155;SDS011;71253;51.496;7.606;2024-03-08T01:02:19;60.67;;;29.60;;
25155;SDS011;71253;51.496;7.606;2024-03-08T01:07:21;57.95;;;29.40;;
25155;SDS011;71253;51.496;7.606;2024-03-08T01:12:23;56.55;;;29.42;;
25155;SDS011;71253;51.496;7.606;2024-03-08T01:17:24;56.00;;;28.40;;
25155;SDS011;71253;51.496;7.606;2024-03-08T01:22:26;59.83;;;30.05;;
25155;SDS011;71253;51.496;7.606;2024-03-08T01:27:27;60.03;;;28.83;;
25155;SDS011;71253;51.496;7.606;2024-03-08T01:32:29;59.65;;;29.33;;
25155;SDS011;71253;51.496;7.606;2024-03-08T01:37:31;58.50;;;30.40;;
25155;SDS011;71253;51.496;7.606;2024-03-08T01:42:32;64.88;;;30.73;;
25155;SDS011;71253;51.496;7.606;2024-03-08T01:47:34;64.40;;;29.77;;
25155;SDS011;71253;51.496;7.606;2024-03-08T01:52:36;51.47;;;29.45;;
25155;SDS011;71253;51.496;7.606;2024-03-08T01:57:38;58.92;;;29.75;;
25155;SDS011;71253;51.496;7.606;2024-03-08T02:02:40;62.75;;;30.38;;
25155;SDS011;71253;51.496;7.606;2024-03-08T02:07:43;61.05;;;30.25;;
25155;SDS011;71253;51.496;7.606;2024-03-08T02:12:46;64.88;;;30.73;;
25155;SDS011;71253;51.496;7.606;2024-03-08T02:17:48;60.53;;;31.00;;
25155;SDS011;71253;51.496;7.606;2024-03-08T02:22:50;59.67;;;30.80;;
25155;SDS011;71253;51.496;7.606;2024-03-08T02:27:52;63.83;;;31.63;;
25155;SDS011;71253;51.496;7.606;2024-03-08T02:32:54;63.72;;;31.77;;
25155;SDS011;71253;51.496;7.606;2024-03-08T02:37:57;62.45;;;31.17;;
25155;SDS011;71253;51.496;7.606;2024-03-08T02:42:59;64.95;;;32.58;;
25155;SDS011;71253;51.496;7.606;2024-03-08T02:48:01;67.45;;;32.38;;
25155;SDS011;71253;51.496;7.606;2024-03-08T02:53:03;68.00;;;32.15;;
25155;SDS011;71253;51.496;7.606;2024-03-08T02:58:05;60.88;;;32.13;;
25155;SDS011;71253;51.496;7.606;2024-03-08T03:03:07;65.93;;;32.95;;
25155;SDS011;71253;51.496;7.606;2024-03-08T03:08:09;69.10;;;32.88;;
25155;SDS011;71253;51.496;7.606;2024-03-08T03:13:10;62.78;;;32.33;;
25155;SDS011;71253;51.496;7.606;2024-03-08T03:18:12;63.08;;;31.92;;
25155;SDS011;71253;51.496;7.606;2024-03-08T03:23:14;65.35;;;33.20;;
25155;SDS011;71253;51.496;7.606;2024-03-08T03:28:16;68.03;;;32.97;;
25155;SDS011;71253;51.496;7.606;2024-03-08T03:33:17;63.88;;;31.70;;
25155;SDS011;71253;51.496;7.606;2024-03-08T03:38:19;69.47;;;33.60;;
25155;SDS011;71253;51.496;7.606;2024-03-08T03:43:21;73.90;;;33.83;;
25155;SDS011;71253;51.496;7.606;2024-03-08T03:48:23;66.18;;;32.78;;
25155;SDS011;71253;51.496;7.606;2024-03-08T03:53:24;67.40;;;33.33;;
25155;SDS011;71253;51.496;7.606;2024-03-08T03:58:26;71.22;;;34.38;;
25155;SDS011;71253;51.496;7.606;2024-03-08T04:03:27;72.65;;;37.03;;
25155;SDS011;71253;51.496;7.606;2024-03-08T04:08:29;73.40;;;35.90;;
25155;SDS011;71253;51.496;7.606;2024-03-08T04:13:30;79.78;;;37.95;;
25155;SDS011;71253;51.496;7.606;2024-03-08T04:18:32;82.60;;;39.00;;
25155;SDS011;71253;51.496;7.606;2024-03-08T04:23:34;82.28;;;40.05;;
25155;SDS011;71253;51.496;7.606;2024-03-08T04:28:36;85.00;;;39.85;;
25155;SDS011;71253;51.496;7.606;2024-03-08T04:33:37;82.30;;;38.17;;
25155;SDS011;71253;51.496;7.606;2024-03-08T04:38:42;86.35;;;40.17;;
25155;SDS011;71253;51.496;7.606;2024-03-08T04:43:44;89.47;;;42.30;;
25155;SDS011;71253;51.496;7.606;2024-03-08T04:48:45;93.88;;;42.20;;
25155;SDS011;71253;51.496;7.606;2024-03-08T04:53:47;91.13;;;44.20;;
25155;SDS011;71253;51.496;7.606;2024-03-08T04:58:49;97.15;;;44.35;;
25155;SDS011;71253;51.496;7.606;2024-03-08T05:03:50;100.85;;;44.15;;
25155;SDS011;71253;51.496;7.606;2024-03-08T05:08:52;106.32;;;44.80;;
25155;SDS011;71253;51.496;7.606;2024-03-08T05:13:54;90.88;;;42.00;;
25155;SDS011;71253;51.496;7.606;2024-03-08T05:18:55;98.47;;;44.45;;
25155;SDS011;71253;51.496;7.606;2024-03-08T05:23:57;87.70;;;42.85;;
25155;SDS011;71253;51.496;7.606;2024-03-08T05:28:59;111.40;;;47.40;;
25155;SDS011;71253;51.496;7.606;2024-03-08T05:34:00;105.85;;;47.38;;
25155;SDS011;71253;51.496;7.606;2024-03-08T05:39:02;121.47;;;48.10;;
25155;SDS011;71253;51.496;7.606;2024-03-08T05:44:04;111.47;;;49.00;;
25155;SDS011;71253;51.496;7.606;2024-03-08T05:49:06;108.15;;;46.40;;
25155;SDS011;71253;51.496;7.606;2024-03-08T05:54:09;114.80;;;48.75;;
25155;SDS011;71253;51.496;7.606;2024-03-08T05:59:12;128.10;;;50.90;;
25155;SDS011;71253;51.496;7.606;2024-03-08T06:04:13;154.15;;;55.33;;
25155;SDS011;71253;51.496;7.606;2024-03-08T06:09:15;136.15;;;55.95;;
25155;SDS011;71253;51.496;7.606;2024-03-08T06:14:17;126.63;;;52.30;;
25155;SDS011;71253;51.496;7.606;2024-03-08T06:19:18;143.15;;;55.67;;
25155;SDS011;71253;51.496;7.606;2024-03-08T06:24:20;134.15;;;55.20;;
25155;SDS011;71253;51.496;7.606;2024-03-08T06:29:22;133.82;;;53.97;;
25155;SDS011;71253;51.496;7.606;2024-03-08T06:34:23;112.22;;;49.92;;
25155;SDS011;71253;51.496;7.606;2024-03-08T06:39:25;77.93;;;39.15;;
25155;SDS011;71253;51.496;7.606;2024-03-08T06:44:27;66.22;;;34.20;;
25155;SDS011;71253;51.496;7.606;2024-03-08T06:49:28;72.90;;;32.80;;
25155;SDS011;71253;51.496;7.606;2024-03-08T06:54:30;59.40;;;30.42;;
25155;SDS011;71253;51.496;7.606;2024-03-08T06:59:32;61.45;;;29.83;;
25155;SDS011;71253;51.496;7.606;2024-03-08T07:04:33;56.15;;;29.75;;
25155;SDS011;71253;51.496;7.606;2024-03-08T07:09:35;102.22;;;30.88;;
25155;SDS011;71253;51.496;7.606;2024-03-08T07:14:37;52.90;;;28.30;;
25155;SDS011;71253;51.496;7.606;2024-03-08T07:19:41;55.67;;;28.90;;
25155;SDS011;71253;51.496;7.606;2024-03-08T07:24:44;62.67;;;28.80;;
25155;SDS011;71253;51.496;7.606;2024-03-08T07:29:45;54.58;;;28.13;;
25155;SDS011;71253;51.496;7.606;2024-03-08T07:34:48;69.00;;;29.55;;
25155;SDS011;71253;51.496;7.606;2024-03-08T07:39:49;62.50;;;28.73;;
25155;SDS011;71253;51.496;7.606;2024-03-08T07:44:51;63.00;;;29.52;;
25155;SDS011;71253;51.496;7.606;2024-03-08T07:49:53;52.28;;;28.88;;
25155;SDS011;71253;51.496;7.606;2024-03-08T07:54:54;53.97;;;28.45;;
25155;SDS011;71253;51.496;7.606;2024-03-08T07:59:56;47.65;;;27.98;;
25155;SDS011;71253;51.496;7.606;2024-03-08T08:04:58;51.88;;;26.77;;
25155;SDS011;71253;51.496;7.606;2024-03-08T08:09:59;51.00;;;27.13;;
25155;SDS011;71253;51.496;7.606;2024-03-08T08:15:01;48.28;;;26.92;;
25155;SDS011;71253;51.496;7.606;2024-03-08T08:20:02;56.63;;;27.23;;
25155;SDS011;71253;51.496;7.606;2024-03-08T08:25:04;48.47;;;28.00;;
25155;SDS011;71253;51.496;7.606;2024-03-08T08:30:06;47.25;;;29.13;;
25155;SDS011;71253;51.496;7.606;2024-03-08T08:35:08;51.08;;;29.05;;
25155;SDS011;71253;51.496;7.606;2024-03-08T08:40:09;55.55;;;29.15;;
25155;SDS011;71253;51.496;7.606;2024-03-08T08:45:12;60.67;;;30.27;;
25155;SDS011;71253;51.496;7.606;2024-03-08T08:50:15;58.80;;;31.42;;
25155;SDS011;71253;51.496;7.606;2024-03-08T08:55:17;56.35;;;29.20;;
25155;SDS011;71253;51.496;7.606;2024-03-08T09:00:19;59.45;;;29.75;;
25155;SDS011;71253;51.496;7.606;2024-03-08T09:05:21;53.72;;;30.67;;
25155;SDS011;71253;51.496;7.606;2024-03-08T09:10:22;56.10;;;31.35;;
25155;SDS011;71253;51.496;7.606;2024-03-08T09:15:30;56.92;;;31.98;;
25155;SDS011;71253;51.496;7.606;2024-03-08T09:20:31;67.75;;;31.73;;
25155;SDS011;71253;51.496;7.606;2024-03-08T09:25:33;61.08;;;30.83;;
25155;SDS011;71253;51.496;7.606;2024-03-08T09:30:35;51.35;;;31.05;;
25155;SDS011;71253;51.496;7.606;2024-03-08T09:35:37;55.72;;;31.13;;
25155;SDS011;71253;51.496;7.606;2024-03-08T09:40:41;59.08;;;30.77;;
25155;SDS011;71253;51.496;7.606;2024-03-08T09:45:42;57.42;;;31.88;;
25155;SDS011;71253;51.496;7.606;2024-03-08T09:50:47;62.67;;;31.60;;
25155;SDS011;71253;51.496;7.606;2024-03-08T09:55:48;52.90;;;30.95;;
25155;SDS011;71253;51.496;7.606;2024-03-08T10:00:50;59.53;;;31.95;;
25155;SDS011;71253;51.496;7.606;2024-03-08T10:05:51;58.80;;;33.03;;
25155;SDS011;71253;51.496;7.606;2024-03-08T10:10:53;64.97;;;32.60;;
25155;SDS011;71253;51.496;7.606;2024-03-08T10:15:55;58.72;;;33.17;;
25155;SDS011;71253;51.496;7.606;2024-03-08T10:21:03;58.88;;;32.55;;
25155;SDS011;71253;51.496;7.606;2024-03-08T10:26:10;55.75;;;32.47;;
25155;SDS011;71253;51.496;7.606;2024-03-08T10:31:16;60.58;;;33.42;;
25155;SDS011;71253;51.496;7.606;2024-03-08T10:36:19;57.22;;;32.00;;
25155;SDS011;71253;51.496;7.606;2024-03-08T10:41:21;56.58;;;32.25;;
25155;SDS011;71253;51.496;7.606;2024-03-08T10:52:03;54.30;;;31.88;;
25155;SDS011;71253;51.496;7.606;2024-03-08T10:57:05;53.60;;;31.52;;
25155;SDS011;71253;51.496;7.606;2024-03-08T11:02:07;54.47;;;30.55;;
25155;SDS011;71253;51.496;7.606;2024-03-08T11:07:10;53.80;;;29.73;;
25155;SDS011;71253;51.496;7.606;2024-03-08T11:12:24;114.93;;;34.55;;
25155;SDS011;71253;51.496;7.606;2024-03-08T11:17:44;54.72;;;26.65;;
25155;SDS011;71253;51.496;7.606;2024-03-08T11:22:51;50.20;;;26.77;;
25155;SDS011;71253;51.496;7.606;2024-03-08T11:28:07;32.03;;;15.60;;
25155;SDS011;71253;51.496;7.606;2024-03-08T11:33:16;27.30;;;14.95;;
25155;SDS011;71253;51.496;7.606;2024-03-08T11:38:17;30.52;;;14.82;;
25155;SDS011;71253;51.496;7.606;2024-03-08T11:43:19;30.80;;;14.45;;
25155;SDS011;71253;51.496;7.606;2024-03-08T11:48:21;27.42;;;14.43;;
25155;SDS011;71253;51.496;7.606;2024-03-08T11:53:23;25.60;;;14.25;;
25155;SDS011;71253;51.496;7.606;2024-03-08T11:58:24;27.75;;;14.73;;
25155;SDS011;71253;51.496;7.606;2024-03-08T12:03:26;26.90;;;14.25;;
25155;SDS011;71253;51.496;7.606;2024-03-08T12:08:27;24.73;;;14.52;;
25155;SDS011;71253;51.496;7.606;2024-03-08T12:13:30;28.10;;;13.80;;
25155;SDS011;71253;51.496;7.606;2024-03-08T12:18:33;25.40;;;14.63;;
25155;SDS011;71253;51.496;7.606;2024-03-08T12:23:36;23.45;;;14.18;;
25155;SDS011;71253;51.496;7.606;2024-03-08T12:28:40;30.70;;;13.43;;
25155;SDS011;71253;51.496;7.606;2024-03-08T12:33:51;20.73;;;12.73;;
25155;SDS011;71253;51.496;7.606;2024-03-08T12:38:57;25.13;;;13.45;;
25155;SDS011;71253;51.496;7.606;2024-03-08T12:44:00;25.73;;;14.68;;
25155;SDS011;71253;51.496;7.606;2024-03-08T12:49:02;22.63;;;13.02;;
25155;SDS011;71253;51.496;7.606;2024-03-08T12:54:03;22.15;;;13.90;;
25155;SDS011;71253;51.496;7.606;2024-03-08T12:59:08;23.77;;;13.45;;
25155;SDS011;71253;51.496;7.606;2024-03-08T13:04:09;25.08;;;13.65;;
25155;SDS011;71253;51.496;7.606;2024-03-08T13:09:11;24.08;;;13.95;;
25155;SDS011;71253;51.496;7.606;2024-03-08T13:14:14;24.00;;;13.80;;
25155;SDS011;71253;51.496;7.606;2024-03-08T13:19:15;40.95;;;14.80;;
25155;SDS011;71253;51.496;7.606;2024-03-08T13:24:17;23.90;;;13.70;;
25155;SDS011;71253;51.496;7.606;2024-03-08T13:29:19;24.75;;;13.98;;
25155;SDS011;71253;51.496;7.606;2024-03-08T13:34:20;25.75;;;15.60;;
25155;SDS011;71253;51.496;7.606;2024-03-08T13:39:22;27.98;;;15.02;;
25155;SDS011;71253;51.496;7.606;2024-03-08T13:44:24;24.80;;;15.07;;
25155;SDS011;71253;51.496;7.606;2024-03-08T13:49:25;27.55;;;16.25;;
25155;SDS011;71253;51.496;7.606;2024-03-08T13:54:27;22.60;;;15.02;;
25155;SDS011;71253;51.496;7.606;2024-03-08T13:59:29;40.20;;;15.68;;
25155;SDS011;71253;51.496;7.606;2024-03-08T14:04:32;33.72;;;15.93;;
25155;SDS011;71253;51.496;7.606;2024-03-08T14:09:34;27.92;;;16.42;;
25155;SDS011;71253;51.496;7.606;2024-03-08T14:14:36;29.85;;;16.90;;
25155;SDS011;71253;51.496;7.606;2024-03-08T14:19:37;37.42;;;16.55;;
25155;SDS011;71253;51.496;7.606;2024-03-08T14:24:39;29.45;;;16.48;;
25155;SDS011;71253;51.496;7.606;2024-03-08T14:29:41;27.60;;;16.92;;
25155;SDS011;71253;51.496;7.606;2024-03-08T14:34:42;32.58;;;16.75;;
25155;SDS011;71253;51.496;7.606;2024-03-08T14:39:44;27.10;;;17.33;;
25155;SDS011;71253;51.496;7.606;2024-03-08T14:44:45;30.42;;;17.92;;
25155;SDS011;71253;51.496;7.606;2024-03-08T14:49:47;32.70;;;17.10;;
25155;SDS011;71253;51.496;7.606;2024-03-08T14:54:49;31.17;;;17.60;;
25155;SDS011;71253;51.496;7.606;2024-03-08T14:59:50;32.63;;;17.65;;
25155;SDS011;71253;51.496;7.606;2024-03-08T15:04:52;34.95;;;17.88;;
25155;SDS011;71253;51.496;7.606;2024-03-08T15:09:53;30.33;;;18.15;;
25155;SDS011;71253;51.496;7.606;2024-03-08T15:14:55;27.65;;;17.00;;
25155;SDS011;71253;51.496;7.606;2024-03-08T15:19:57;33.80;;;18.00;;
25155;SDS011;71253;51.496;7.606;2024-03-08T15:24:58;29.02;;;17.30;;
25155;SDS011;71253;51.496;7.606;2024-03-08T15:30:00;40.92;;;18.67;;
25155;SDS011;71253;51.496;7.606;2024-03-08T15:35:02;31.60;;;17.45;;
25155;SDS011;71253;51.496;7.606;2024-03-08T15:40:03;30.63;;;16.73;;
25155;SDS011;71253;51.496;7.606;2024-03-08T15:45:06;29.98;;;17.58;;
25155;SDS011;71253;51.496;7.606;2024-03-08T15:50:08;32.08;;;18.50;;
25155;SDS011;71253;51.496;7.606;2024-03-08T15:55:14;32.67;;;17.73;;
25155;SDS011;71253;51.496;7.606;2024-03-08T16:00:16;29.55;;;16.73;;
25155;SDS011;71253;51.496;7.606;2024-03-08T16:05:19;34.33;;;16.92;;
25155;SDS011;71253;51.496;7.606;2024-03-08T16:10:21;29.73;;;16.73;;
25155;SDS011;71253;51.496;7.606;2024-03-08T16:15:25;35.22;;;17.67;;
25155;SDS011;71253;51.496;7.606;2024-03-08T16:20:27;32.33;;;16.67;;
25155;SDS011;71253;51.496;7.606;2024-03-08T16:25:29;34.58;;;16.42;;
25155;SDS011;71253;51.496;7.606;2024-03-08T16:30:30;33.67;;;16.98;;
25155;SDS011;71253;51.496;7.606;2024-03-08T16:35:33;34.40;;;16.63;;
25155;SDS011;71253;51.496;7.606;2024-03-08T16:40:34;35.47;;;17.80;;
25155;SDS011;71253;51.496;7.606;2024-03-08T16:45:36;38.38;;;17.83;;
25155;SDS011;71253;51.496;7.606;2024-03-08T16:50:42;33.55;;;17.70;;
25155;SDS011;71253;51.496;7.606;2024-03-08T16:55:44;36.20;;;18.38;;
25155;SDS011;71253;51.496;7.606;2024-03-08T17:00:45;36.47;;;17.58;;
25155;SDS011;71253;51.496;7.606;2024-03-08T17:05:47;34.85;;;18.02;;
25155;SDS011;71253;51.496;7.606;2024-03-08T17:10:49;38.25;;;18.83;;
25155;SDS011;71253;51.496;7.606;2024-03-08T17:15:51;39.30;;;20.25;;
25155;SDS011;71253;51.496;7.606;2024-03-08T17:20:52;43.00;;;20.10;;
25155;SDS011;71253;51.496;7.606;2024-03-08T17:25:54;38.78;;;20.67;;
25155;SDS011;71253;51.496;7.606;2024-03-08T17:30:56;36.60;;;20.77;;
25155;SDS011;71253;51.496;7.606;2024-03-08T17:35:57;42.38;;;22.27;;
25155;SDS011;71253;51.496;7.606;2024-03-08T17:40:59;44.53;;;24.45;;
25155;SDS011;71253;51.496;7.606;2024-03-08T17:46:00;60.42;;;30.40;;
25155;SDS011;71253;51.496;7.606;2024-03-08T17:51:02;52.05;;;25.88;;
25155;SDS011;71253;51.496;7.606;2024-03-08T17:56:04;50.63;;;27.25;;
25155;SDS011;71253;51.496;7.606;2024-03-08T18:01:05;54.15;;;27.55;;
25155;SDS011;71253;51.496;7.606;2024-03-08T18:06:07;47.65;;;26.35;;
25155;SDS011;71253;51.496;7.606;2024-03-08T18:11:09;47.42;;;26.50;;
25155;SDS011;71253;51.496;7.606;2024-03-08T18:16:10;61.47;;;30.73;;
25155;SDS011;71253;51.496;7.606;2024-03-08T18:21:12;55.08;;;30.50;;
25155;SDS011;71253;51.496;7.606;2024-03-08T18:26:14;54.53;;;30.08;;
25155;SDS011;71253;51.496;7.606;2024-03-08T18:31:15;61.55;;;30.05;;
25155;SDS011;71253;51.496;7.606;2024-03-08T18:36:17;61.78;;;31.92;;
25155;SDS011;71253;51.496;7.606;2024-03-08T18:41:21;66.15;;;31.27;;
25155;SDS011;71253;51.496;7.606;2024-03-08T18:46:23;61.05;;;32.75;;
25155;SDS011;71253;51.496;7.606;2024-03-08T18:51:25;68.50;;;34.88;;
25155;SDS011;71253;51.496;7.606;2024-03-08T18:56:27;63.08;;;33.60;;
25155;SDS011;71253;51.496;7.606;2024-03-08T19:01:29;68.85;;;34.95;;
25155;SDS011;71253;51.496;7.606;2024-03-08T19:06:31;74.55;;;34.38;;
25155;SDS011;71253;51.496;7.606;2024-03-08T19:11:32;69.97;;;35.65;;
25155;SDS011;71253;51.496;7.606;2024-03-08T19:16:34;76.22;;;36.40;;
25155;SDS011;71253;51.496;7.606;2024-03-08T19:21:35;75.85;;;35.95;;
25155;SDS011;71253;51.496;7.606;2024-03-08T19:26:37;70.72;;;36.20;;
25155;SDS011;71253;51.496;7.606;2024-03-08T19:31:39;76.47;;;35.63;;
25155;SDS011;71253;51.496;7.606;2024-03-08T19:36:40;74.18;;;36.90;;
25155;SDS011;71253;51.496;7.606;2024-03-08T19:41:43;73.72;;;38.05;;
25155;SDS011;71253;51.496;7.606;2024-03-08T19:46:44;71.82;;;36.97;;
25155;SDS011;71253;51.496;7.606;2024-03-08T19:51:46;86.18;;;39.38;;
25155;SDS011;71253;51.496;7.606;2024-03-08T19:56:48;78.63;;;40.05;;
25155;SDS011;71253;51.496;7.606;2024-03-08T20:01:49;73.80;;;38.67;;
25155;SDS011;71253;51.496;7.606;2024-03-08T20:06:51;80.22;;;39.13;;
25155;SDS011;71253;51.496;7.606;2024-03-08T20:11:52;81.35;;;38.63;;
25155;SDS011;71253;51.496;7.606;2024-03-08T20:16:55;80.40;;;40.65;;
25155;SDS011;71253;51.496;7.606;2024-03-08T20:21:56;77.65;;;39.28;;
25155;SDS011;71253;51.496;7.606;2024-03-08T20:26:58;84.03;;;40.30;;
25155;SDS011;71253;51.496;7.606;2024-03-08T20:32:00;79.82;;;39.60;;
25155;SDS011;71253;51.496;7.606;2024-03-08T20:37:02;82.22;;;40.47;;
25155;SDS011;71253;51.496;7.606;2024-03-08T20:42:03;84.65;;;40.75;;
25155;SDS011;71253;51.496;7.606;2024-03-08T20:47:05;80.10;;;39.95;;
25155;SDS011;71253;51.496;7.606;2024-03-08T20:52:07;84.35;;;40.05;;
25155;SDS011;71253;51.496;7.606;2024-03-08T20:57:09;85.18;;;42.40;;
25155;SDS011;71253;51.496;7.606;2024-03-08T21:02:10;89.38;;;40.97;;
25155;SDS011;71253;51.496;7.606;2024-03-08T21:07:12;82.13;;;40.97;;
25155;SDS011;71253;51.496;7.606;2024-03-08T21:12:13;82.13;;;40.33;;
25155;SDS011;71253;51.496;7.606;2024-03-08T21:17:15;82.75;;;40.08;;
25155;SDS011;71253;51.496;7.606;2024-03-08T21:22:17;85.78;;;41.50;;
25155;SDS011;71253;51.496;7.606;2024-03-08T21:27:19;80.15;;;40.92;;
25155;SDS011;71253;51.496;7.606;2024-03-08T21:32:22;79.38;;;39.15;;
25155;SDS011;71253;51.496;7.606;2024-03-08T21:37:24;81.03;;;40.28;;
25155;SDS011;71253;51.496;7.606;2024-03-08T21:42:26;85.75;;;40.72;;
25155;SDS011;71253;51.496;7.606;2024-03-08T21:47:27;86.13;;;41.33;;
25155;SDS011;71253;51.496;7.606;2024-03-08T21:52:29;85.03;;;41.00;;
25155;SDS011;71253;51.496;7.606;2024-03-08T21:57:31;87.50;;;40.70;;
25155;SDS011;71253;51.496;7.606;2024-03-08T22:02:32;92.35;;;43.17;;
25155;SDS011;71253;51.496;7.606;2024-03-08T22:07:34;88.38;;;42.65;;
25155;SDS011;71253;51.496;7.606;2024-03-08T22:12:35;91.15;;;42.53;;
25155;SDS011;71253;51.496;7.606;2024-03-08T22:17:37;89.10;;;41.83;;
25155;SDS011;71253;51.496;7.606;2024-03-08T22:22:38;96.40;;;46.40;;
25155;SDS011;71253;51.496;7.606;2024-03-08T22:27:40;96.90;;;45.75;;
25155;SDS011;71253;51.496;7.606;2024-03-08T22:32:42;96.13;;;45.30;;
25155;SDS011;71253;51.496;7.606;2024-03-08T22:37:43;98.53;;;45.85;;
25155;SDS011;71253;51.496;7.606;2024-03-08T22:42:45;104.88;;;46.22;;
25155;SDS011;71253;51.496;7.606;2024-03-08T22:47:47;99.28;;;46.97;;
25155;SDS011;71253;51.496;7.606;2024-03-08T22:52:48;96.35;;;46.00;;
25155;SDS011;71253;51.496;7.606;2024-03-08T22:57:50;95.68;;;44.72;;
25155;SDS011;71253;51.496;7.606;2024-03-08T23:02:52;103.90;;;46.03;;
25155;SDS011;71253;51.496;7.606;2024-03-08T23:07:55;113.18;;;49.22;;
25155;SDS011;71253;51.496;7.606;2024-03-08T23:12:57;111.38;;;49.40;;
25155;SDS011;71253;51.496;7.606;2024-03-08T23:17:59;110.40;;;50.03;;
25155;SDS011;71253;51.496;7.606;2024-03-08T23:23:00;115.25;;;47.75;;
25155;SDS011;71253;51.496;7.606;2024-03-08T23:28:02;104.30;;;48.10;;
25155;SDS011;71253;51.496;7.606;2024-03-08T23:33:05;112.80;;;49.10;;
25155;SDS011;71253;51.496;7.606;2024-03-08T23:38:08;113.03;;;50.63;;
25155;SDS011;71253;51.496;7.606;2024-03-08T23:43:09;105.10;;;47.95;;
25155;SDS011;71253;51.496;7.606;2024-03-08T23:48:11;108.53;;;49.25;;
25155;SDS011;71253;51.496;7.606;2024-03-08T23:53:13;116.18;;;50.38;;
25155;SDS011;71253;51.496;7.606;2024-03-08T23:58:14;113.80;;;49.60;;
